Time;durP1;ratioP1;P1;durP2;ratioP2;P2;SDS_P1;SDS_P2;PMS_P1;PMS_P2;Temp;Humidity;BMP_temperature;BMP_pressure;BME280_temperature;BME280_humidity;BME280_pressure;Samples;Min_cycle;Max_cycle;Signal;HPM_P1;HPM_P2
2021/11/27 07:04:07;;;;;;;43.05;24.15;;;;;;;;;;4966711;23;19941;-63
2021/11/27 07:06:33;;;;;;;43.38;25.27;;;;;;;;;;4916735;29;20411;-61
2021/11/27 07:08:59;;;;;;;50.03;26.20;;;;;;;;;;4916595;29;20322;-62
2021/11/27 07:11:25;;;;;;;54.50;26.70;;;;;;;;;;4916626;29;20043;-61
2021/11/27 07:13:51;;;;;;;55.25;28.15;;;;;;;;;;4916712;29;20037;-61
2021/11/27 07:16:17;;;;;;;61.65;30.52;;;;;;;;;;4916330;29;20035;-64
2021/11/27 07:18:43;;;;;;;55.03;28.20;;;;;;;;;;4916335;29;20059;-61
2021/11/27 07:21:09;;;;;;;54.72;28.05;;;;;;;;;;4916339;29;20028;-63
2021/11/27 07:23:37;;;;;;;58.88;29.55;;;;;;;;;;4916178;29;20025;-63
2021/11/27 07:26:03;;;;;;;59.75;30.15;;;;;;;;;;4916462;29;20512;-62
2021/11/27 07:28:29;;;;;;;67.38;34.40;;;;;;;;;;4916406;29;20505;-62
2021/11/27 07:30:55;;;;;;;66.22;32.22;;;;;;;;;;4915996;29;20028;-63
2021/11/27 07:33:21;;;;;;;64.40;32.53;;;;;;;;;;4916030;29;20080;-62
2021/11/27 07:35:49;;;;;;;67.30;33.92;;;;;;;;;;4916161;29;20028;-62
2021/11/27 07:38:15;;;;;;;69.38;33.95;;;;;;;;;;4916134;29;20027;-63
2021/11/27 07:40:42;;;;;;;62.65;32.88;;;;;;;;;;4915960;29;20382;-64
2021/11/27 07:43:08;;;;;;;62.92;32.90;;;;;;;;;;4915772;29;20023;-62
2021/11/27 07:45:34;;;;;;;67.35;32.05;;;;;;;;;;4911798;29;20020;-60
2021/11/27 07:48:01;;;;;;;64.90;34.15;;;;;;;;;;4914596;29;20150;-61
2021/11/27 07:50:27;;;;;;;70.97;36.50;;;;;;;;;;4913950;29;20127;-60
2021/11/27 07:52:53;;;;;;;63.13;33.92;;;;;;;;;;4917382;29;20031;-62
2021/11/27 07:55:19;;;;;;;66.15;34.10;;;;;;;;;;4915947;29;20103;-64
2021/11/27 07:57:45;;;;;;;79.50;38.50;;;;;;;;;;4916049;29;20431;-61
2021/11/27 08:00:12;;;;;;;74.53;34.53;;;;;;;;;;4916028;29;20500;-62
2021/11/27 08:02:38;;;;;;;80.05;39.60;;;;;;;;;;4909316;29;20095;-64
2021/11/27 08:05:04;;;;;;;81.85;42.30;;;;;;;;;;4897074;29;20057;-65
2021/11/27 08:07:32;;;;;;;84.68;42.67;;;;;;;;;;4896046;29;20480;-62
2021/11/27 08:09:58;;;;;;;90.03;41.38;;;;;;;;;;4895910;29;20017;-63
2021/11/27 08:12:24;;;;;;;83.32;41.10;;;;;;;;;;4894957;29;20028;-62
2021/11/27 08:14:50;;;;;;;70.72;37.10;;;;;;;;;;4894999;29;20052;-63
2021/11/27 08:17:17;;;;;;;66.65;34.88;;;;;;;;;;4894886;29;20052;-63
2021/11/27 08:19:43;;;;;;;67.53;33.25;;;;;;;;;;4895189;29;20076;-64
2021/11/27 08:22:09;;;;;;;66.32;34.03;;;;;;;;;;4894775;29;20028;-64
2021/11/27 08:24:35;;;;;;;61.85;32.63;;;;;;;;;;4894953;29;20465;-64
2021/11/27 08:27:01;;;;;;;70.75;33.45;;;;;;;;;;4895112;29;20099;-65
2021/11/27 08:29:27;;;;;;;64.88;33.50;;;;;;;;;;4894866;29;20473;-67
2021/11/27 08:31:53;;;;;;;80.60;37.72;;;;;;;;;;4894847;29;20052;-65
2021/11/27 08:34:19;;;;;;;73.63;37.15;;;;;;;;;;4894681;29;20020;-63
2021/11/27 08:36:45;;;;;;;70.10;36.28;;;;;;;;;;4895039;29;20039;-65
2021/11/27 08:39:11;;;;;;;68.55;35.22;;;;;;;;;;4894665;29;20020;-64
2021/11/27 08:41:38;;;;;;;65.93;34.88;;;;;;;;;;4894952;29;20032;-64
2021/11/27 08:44:04;;;;;;;64.88;33.33;;;;;;;;;;4894730;29;20505;-63
2021/11/27 08:46:30;;;;;;;63.13;34.08;;;;;;;;;;4894739;29;20055;-62
2021/11/27 08:48:57;;;;;;;67.60;34.15;;;;;;;;;;4878121;29;20039;-66
2021/11/27 08:51:23;;;;;;;68.97;35.35;;;;;;;;;;4895219;29;20497;-64
2021/11/27 08:53:49;;;;;;;67.95;36.05;;;;;;;;;;4895848;29;20457;-64
2021/11/27 08:56:15;;;;;;;63.10;33.42;;;;;;;;;;4896032;29;20020;-63
2021/11/27 08:58:42;;;;;;;64.43;33.63;;;;;;;;;;4896003;29;20024;-63
2021/11/27 09:01:09;;;;;;;57.95;30.08;;;;;;;;;;4894881;29;20052;-65
2021/11/27 09:03:36;;;;;;;56.45;29.80;;;;;;;;;;4895148;29;20405;-63
2021/11/27 09:06:02;;;;;;;59.95;31.70;;;;;;;;;;4895631;29;20083;-62
2021/11/27 09:08:28;;;;;;;60.03;32.63;;;;;;;;;;4895660;29;20413;-63
2021/11/27 09:10:55;;;;;;;60.30;31.88;;;;;;;;;;4895334;29;20164;-64
2021/11/27 09:13:21;;;;;;;56.85;29.98;;;;;;;;;;4895927;29;20037;-64
2021/11/27 09:15:47;;;;;;;57.78;31.08;;;;;;;;;;4895767;29;20063;-62
2021/11/27 09:18:13;;;;;;;58.38;30.77;;;;;;;;;;4895550;29;20037;-65
2021/11/27 09:20:39;;;;;;;53.78;29.00;;;;;;;;;;4895962;29;20036;-64
2021/11/27 09:23:06;;;;;;;57.53;31.77;;;;;;;;;;4894979;29;20033;-64
2021/11/27 09:25:32;;;;;;;59.10;30.10;;;;;;;;;;4895289;29;20035;-64
2021/11/27 09:27:59;;;;;;;67.70;34.35;;;;;;;;;;4894663;29;20028;-62
2021/11/27 09:30:26;;;;;;;74.05;37.88;;;;;;;;;;4894519;29;20116;-62
2021/11/27 09:32:52;;;;;;;74.90;37.45;;;;;;;;;;4893608;29;20685;-61
2021/11/27 09:35:18;;;;;;;83.65;41.10;;;;;;;;;;4895715;29;20443;-61
2021/11/27 09:37:44;;;;;;;73.95;38.88;;;;;;;;;;4894702;29;20064;-64
2021/11/27 09:40:11;;;;;;;78.65;41.63;;;;;;;;;;4894278;29;20028;-63
2021/11/27 09:42:40;;;;;;;83.13;44.30;;;;;;;;;;4893715;29;20103;-64
2021/11/27 09:45:07;;;;;;;85.00;44.65;;;;;;;;;;4893082;29;20072;-65
2021/11/27 09:47:34;;;;;;;84.43;46.30;;;;;;;;;;4894839;29;20564;-64
2021/11/27 09:50:02;;;;;;;82.57;44.33;;;;;;;;;;4892879;29;20733;-63
2021/11/27 09:52:28;;;;;;;82.10;42.42;;;;;;;;;;4893292;29;20031;-66
2021/11/27 09:54:54;;;;;;;78.82;42.47;;;;;;;;;;4879439;29;20037;-63
2021/11/27 09:57:20;;;;;;;85.35;42.78;;;;;;;;;;4894953;29;20406;-63
2021/11/27 09:59:47;;;;;;;97.07;49.95;;;;;;;;;;4894391;29;20048;-61
2021/11/27 10:02:14;;;;;;;98.72;49.33;;;;;;;;;;4892863;29;20043;-64
2021/11/27 10:04:50;;;;;;;98.97;47.97;;;;;;;;;;4891527;29;20060;-62
2021/11/27 10:07:17;;;;;;;98.90;49.08;;;;;;;;;;4890150;29;20423;-61
2021/11/27 10:09:45;;;;;;;102.43;52.30;;;;;;;;;;4891652;29;20033;-63
2021/11/27 10:12:11;;;;;;;99.78;50.40;;;;;;;;;;4894782;29;20449;-66
2021/11/27 10:14:39;;;;;;;91.15;45.92;;;;;;;;;;4897242;29;20536;-63
2021/11/27 10:17:07;;;;;;;93.40;45.58;;;;;;;;;;4896699;29;20132;-63
2021/11/27 10:19:42;;;;;;;86.88;43.65;;;;;;;;;;4880852;29;20037;-63
2021/11/27 10:22:09;;;;;;;88.28;45.78;;;;;;;;;;4897168;29;20024;-64
2021/11/27 10:24:36;;;;;;;92.22;49.17;;;;;;;;;;4896969;29;20056;-62
2021/11/27 10:27:03;;;;;;;101.43;50.00;;;;;;;;;;4897159;29;20125;-62
2021/11/27 10:29:35;;;;;;;99.72;51.05;;;;;;;;;;4897483;29;20024;-63
2021/11/27 10:32:06;;;;;;;101.55;50.70;;;;;;;;;;4898083;29;20461;-63
2021/11/27 10:34:33;;;;;;;94.78;48.67;;;;;;;;;;4898377;29;20138;-63
2021/11/27 10:36:59;;;;;;;80.15;45.28;;;;;;;;;;4898229;29;20032;-63
2021/11/27 10:39:25;;;;;;;87.40;45.90;;;;;;;;;;4898374;29;20029;-62
2021/11/27 10:41:55;;;;;;;79.35;42.55;;;;;;;;;;4897644;29;20445;-63
2021/11/27 10:44:26;;;;;;;80.47;43.92;;;;;;;;;;4897883;29;20104;-63
2021/11/27 10:46:52;;;;;;;86.22;43.00;;;;;;;;;;4896431;29;20047;-63
2021/11/27 10:49:25;;;;;;;83.55;43.58;;;;;;;;;;4896638;29;20037;-64
2021/11/27 10:52:24;;;;;;;87.35;45.65;;;;;;;;;;4895411;29;20033;-65
2021/11/27 10:54:50;;;;;;;92.85;48.05;;;;;;;;;;4848730;29;20261;-63
2021/11/27 10:57:28;;;;;;;90.18;48.53;;;;;;;;;;4847311;29;20022;-68
2021/11/27 10:59:57;;;;;;;76.38;40.58;;;;;;;;;;4844215;29;20026;-66
2021/11/27 11:02:26;;;;;;;62.58;34.90;;;;;;;;;;4846460;29;20154;-67
2021/11/27 11:05:02;;;;;;;47.03;26.92;;;;;;;;;;4848275;29;20037;-64
2021/11/27 11:07:30;;;;;;;56.10;32.58;;;;;;;;;;4848596;29;20037;-67
2021/11/27 11:10:19;;;;;;;57.92;32.05;;;;;;;;;;4846783;29;20026;-67
2021/11/27 11:13:05;;;;;;;80.15;43.30;;;;;;;;;;4792645;29;20077;-67
2021/11/27 11:15:33;;;;;;;91.07;49.55;;;;;;;;;;4793060;29;20027;-68
2021/11/27 11:18:11;;;;;;;88.70;47.60;;;;;;;;;;4792313;29;20073;-66
2021/11/27 11:20:43;;;;;;;91.80;47.75;;;;;;;;;;4790656;29;20031;-67
2021/11/27 11:23:16;;;;;;;90.45;47.83;;;;;;;;;;4791329;29;20221;-68
2021/11/27 11:26:01;;;;;;;93.28;49.33;;;;;;;;;;4792410;29;20041;-68
2021/11/27 11:28:31;;;;;;;98.20;51.90;;;;;;;;;;4792757;29;20462;-67
2021/11/27 11:31:01;;;;;;;103.50;53.28;;;;;;;;;;4826260;29;20046;-65
2021/11/27 11:33:27;;;;;;;110.28;55.67;;;;;;;;;;4838543;29;20042;-66
2021/11/27 11:35:54;;;;;;;119.25;59.25;;;;;;;;;;4824020;29;20504;-63
2021/11/27 11:38:21;;;;;;;114.95;59.53;;;;;;;;;;4842105;29;20068;-65
2021/11/27 11:40:48;;;;;;;115.55;60.22;;;;;;;;;;4857585;29;20093;-64
2021/11/27 11:43:15;;;;;;;109.85;57.90;;;;;;;;;;4857418;29;20034;-64
2021/11/27 11:45:41;;;;;;;106.00;55.45;;;;;;;;;;4857455;29;20041;-64
2021/11/27 11:48:08;;;;;;;95.18;50.58;;;;;;;;;;4857089;29;20068;-64
2021/11/27 11:50:36;;;;;;;92.93;48.85;;;;;;;;;;4905829;29;20047;-64
2021/11/27 11:53:11;;;;;;;91.72;48.97;;;;;;;;;;4915931;29;20540;-65
2021/11/27 11:55:38;;;;;;;95.53;51.90;;;;;;;;;;4915632;29;20429;-63
2021/11/27 11:58:04;;;;;;;110.25;54.75;;;;;;;;;;4915452;29;20476;-63
2021/11/27 12:00:35;;;;;;;114.63;56.42;;;;;;;;;;4915553;29;20036;-64
2021/11/27 12:03:04;;;;;;;106.40;52.85;;;;;;;;;;4915134;29;20059;-63
2021/11/27 12:05:32;;;;;;;101.88;52.40;;;;;;;;;;4915262;29;20058;-63
2021/11/27 12:07:59;;;;;;;107.40;55.17;;;;;;;;;;4915548;29;20032;-63
2021/11/27 12:10:29;;;;;;;96.38;51.85;;;;;;;;;;4915385;29;20031;-62
2021/11/27 12:13:07;;;;;;;92.38;47.67;;;;;;;;;;4915311;29;20028;-63
2021/11/27 12:15:34;;;;;;;85.10;44.60;;;;;;;;;;4915166;29;20028;-64
2021/11/27 12:18:06;;;;;;;75.43;41.20;;;;;;;;;;4915221;29;20029;-63
2021/11/27 12:20:41;;;;;;;77.05;40.92;;;;;;;;;;4915646;29;20024;-64
2021/11/27 12:23:29;;;;;;;68.75;39.10;;;;;;;;;;4915493;29;20400;-62
2021/11/27 12:26:10;;;;;;;73.50;38.53;;;;;;;;;;4915218;29;20044;-62
2021/11/27 12:28:40;;;;;;;73.28;39.83;;;;;;;;;;4915348;29;20024;-63
2021/11/27 12:31:13;;;;;;;81.20;43.10;;;;;;;;;;4915247;29;20083;-63
2021/11/27 12:33:45;;;;;;;77.75;42.20;;;;;;;;;;4914972;29;20535;-64
2021/11/27 12:36:23;;;;;;;72.85;38.05;;;;;;;;;;4914427;29;20028;-61
2021/11/27 12:39:04;;;;;;;74.20;40.60;;;;;;;;;;4915041;29;20515;-64
2021/11/27 12:41:35;;;;;;;74.43;38.20;;;;;;;;;;4914946;29;20535;-63
2021/11/27 12:44:11;;;;;;;75.85;41.42;;;;;;;;;;4914722;29;20388;-64
2021/11/27 12:46:38;;;;;;;74.20;40.88;;;;;;;;;;4914938;29;20040;-64
2021/11/27 12:49:04;;;;;;;72.63;39.95;;;;;;;;;;4914843;29;20028;-63
2021/11/27 12:51:31;;;;;;;69.50;37.55;;;;;;;;;;4914987;29;20050;-64
2021/11/27 12:54:03;;;;;;;66.78;37.17;;;;;;;;;;4914884;29;20031;-63
2021/11/27 12:56:47;;;;;;;73.90;37.95;;;;;;;;;;4914942;29;20031;-64
2021/11/27 12:59:17;;;;;;;71.78;38.92;;;;;;;;;;4914706;29;20027;-64
2021/11/27 13:01:43;;;;;;;79.05;39.03;;;;;;;;;;4914467;29;20055;-63
2021/11/27 13:04:09;;;;;;;69.18;37.38;;;;;;;;;;4914204;29;20060;-64
2021/11/27 13:06:38;;;;;;;59.25;31.48;;;;;;;;;;4914467;29;20051;-64
2021/11/27 13:09:15;;;;;;;61.53;30.65;;;;;;;;;;4914303;29;20111;-63
2021/11/27 13:11:45;;;;;;;57.97;31.75;;;;;;;;;;4914680;29;20489;-64
2021/11/27 13:14:24;;;;;;;61.85;33.45;;;;;;;;;;4914515;29;20484;-64
2021/11/27 13:16:51;;;;;;;64.65;34.72;;;;;;;;;;4914184;29;20039;-63
2021/11/27 13:19:30;;;;;;;69.28;38.03;;;;;;;;;;4914254;29;20035;-63
2021/11/27 13:22:03;;;;;;;76.30;38.85;;;;;;;;;;4914662;29;20039;-63
2021/11/27 13:24:29;;;;;;;71.75;39.83;;;;;;;;;;4914522;29;20032;-62
2021/11/27 13:26:55;;;;;;;85.32;41.97;;;;;;;;;;4914168;29;20055;-63
2021/11/27 13:29:21;;;;;;;87.53;43.83;;;;;;;;;;4914400;29;20028;-62
2021/11/27 13:31:47;;;;;;;83.63;43.80;;;;;;;;;;4914708;29;20032;-64
2021/11/27 13:34:17;;;;;;;86.68;44.70;;;;;;;;;;4914438;29;20051;-63
2021/11/27 13:36:43;;;;;;;82.85;43.65;;;;;;;;;;4914668;29;20028;-63
2021/11/27 13:39:12;;;;;;;83.50;43.00;;;;;;;;;;4914222;29;20028;-63
2021/11/27 13:41:39;;;;;;;76.10;40.38;;;;;;;;;;4914246;29;20028;-64
2021/11/27 13:44:06;;;;;;;77.30;39.97;;;;;;;;;;4914280;29;20097;-63
2021/11/27 13:46:32;;;;;;;72.90;38.70;;;;;;;;;;4914691;29;20040;-63
2021/11/27 13:49:02;;;;;;;71.72;36.95;;;;;;;;;;4918163;29;20040;-63
2021/11/27 13:51:28;;;;;;;65.72;35.00;;;;;;;;;;4917866;29;20043;-63
2021/11/27 13:53:55;;;;;;;70.88;35.53;;;;;;;;;;4917928;29;20552;-63
2021/11/27 13:56:21;;;;;;;61.72;32.50;;;;;;;;;;4918580;29;20079;-64
2021/11/27 13:58:56;;;;;;;63.03;34.13;;;;;;;;;;4917923;29;20032;-64
2021/11/27 14:01:22;;;;;;;65.03;35.88;;;;;;;;;;4917899;29;20099;-65
2021/11/27 14:03:48;;;;;;;69.60;36.83;;;;;;;;;;4917143;29;20084;-63
2021/11/27 14:06:15;;;;;;;77.50;37.28;;;;;;;;;;4917664;29;20040;-64
2021/11/27 14:08:54;;;;;;;70.53;37.80;;;;;;;;;;4917530;29;20091;-64
2021/11/27 14:11:30;;;;;;;73.57;35.58;;;;;;;;;;4917335;29;20096;-64
2021/11/27 14:14:11;;;;;;;76.65;36.58;;;;;;;;;;4917590;29;20081;-64
2021/11/27 14:16:43;;;;;;;64.57;34.80;;;;;;;;;;4901247;29;20020;-64
2021/11/27 14:19:14;;;;;;;65.10;34.03;;;;;;;;;;4917518;29;20532;-63
2021/11/27 14:21:41;;;;;;;62.92;32.70;;;;;;;;;;4916803;29;20040;-64
2021/11/27 14:24:08;;;;;;;66.45;34.17;;;;;;;;;;4916936;29;20067;-64
2021/11/27 14:26:46;;;;;;;65.60;33.45;;;;;;;;;;4917210;29;20051;-62
2021/11/27 14:29:16;;;;;;;68.72;35.58;;;;;;;;;;4917169;29;20485;-63
2021/11/27 14:31:42;;;;;;;70.97;36.45;;;;;;;;;;4903360;29;20473;-64
2021/11/27 14:34:09;;;;;;;68.65;35.53;;;;;;;;;;4898151;29;20033;-63
2021/11/27 14:36:40;;;;;;;68.30;36.97;;;;;;;;;;4898406;29;20028;-63
2021/11/27 14:39:20;;;;;;;76.85;40.90;;;;;;;;;;4897571;29;20031;-63
2021/11/27 14:41:46;;;;;;;77.57;41.88;;;;;;;;;;4894763;29;20020;-61
2021/11/27 14:44:13;;;;;;;81.75;42.33;;;;;;;;;;4897514;29;20020;-62
2021/11/27 14:46:39;;;;;;;85.13;43.45;;;;;;;;;;4896809;29;20515;-61
2021/11/27 14:49:25;;;;;;;83.45;45.63;;;;;;;;;;4898124;29;20040;-61
2021/11/27 14:51:52;;;;;;;83.13;43.13;;;;;;;;;;4897870;29;20036;-64
2021/11/27 14:54:20;;;;;;;82.22;44.15;;;;;;;;;;4897257;29;20039;-64
2021/11/27 14:56:50;;;;;;;110.40;47.65;;;;;;;;;;4897989;29;20037;-63
2021/11/27 14:59:17;;;;;;;93.60;44.85;;;;;;;;;;4896496;29;20032;-64
2021/11/27 15:01:43;;;;;;;105.30;48.28;;;;;;;;;;4896102;29;20047;-63
2021/11/27 15:04:09;;;;;;;82.45;42.55;;;;;;;;;;4896559;29;20048;-68
2021/11/27 15:06:35;;;;;;;78.82;41.75;;;;;;;;;;4897171;29;20033;-64
2021/11/27 15:09:01;;;;;;;77.93;40.92;;;;;;;;;;4906108;29;20156;-63
2021/11/27 15:11:27;;;;;;;71.80;39.03;;;;;;;;;;4905447;29;20037;-63
2021/11/27 15:13:58;;;;;;;73.88;40.00;;;;;;;;;;4897828;29;20032;-63
2021/11/27 15:16:24;;;;;;;72.55;40.85;;;;;;;;;;4897626;29;20039;-63
2021/11/27 15:18:50;;;;;;;77.40;39.35;;;;;;;;;;4897331;29;20043;-64
2021/11/27 15:21:18;;;;;;;79.18;38.85;;;;;;;;;;4896949;29;20032;-64
2021/11/27 15:23:45;;;;;;;73.38;38.25;;;;;;;;;;4897444;29;20032;-62
2021/11/27 15:26:11;;;;;;;76.43;38.80;;;;;;;;;;4897158;29;20036;-63
2021/11/27 15:28:37;;;;;;;73.57;40.17;;;;;;;;;;4897565;29;20088;-62
2021/11/27 15:31:03;;;;;;;78.63;40.50;;;;;;;;;;4897182;29;20040;-62
2021/11/27 15:33:30;;;;;;;75.10;39.40;;;;;;;;;;4897199;29;20511;-62
2021/11/27 15:35:56;;;;;;;82.57;41.92;;;;;;;;;;4897750;29;20036;-61
2021/11/27 15:38:22;;;;;;;79.00;40.38;;;;;;;;;;4897155;29;20088;-61
2021/11/27 15:40:49;;;;;;;86.72;44.72;;;;;;;;;;4896738;29;20040;-63
2021/11/27 15:43:15;;;;;;;93.30;46.65;;;;;;;;;;4897068;29;20028;-65
2021/11/27 15:45:41;;;;;;;86.80;45.63;;;;;;;;;;4897137;29;20426;-64
2021/11/27 15:48:07;;;;;;;82.10;43.78;;;;;;;;;;4895952;29;20091;-65
2021/11/27 15:50:33;;;;;;;74.65;38.47;;;;;;;;;;4895700;29;20132;-65
2021/11/27 15:52:59;;;;;;;66.72;36.15;;;;;;;;;;4880042;29;20029;-65
2021/11/27 15:55:28;;;;;;;68.20;36.95;;;;;;;;;;4896980;29;20029;-64
2021/11/27 15:57:54;;;;;;;66.55;33.78;;;;;;;;;;4896941;29;20039;-65
2021/11/27 16:00:20;;;;;;;70.35;37.60;;;;;;;;;;4896655;29;20039;-66
2021/11/27 16:02:46;;;;;;;73.43;36.85;;;;;;;;;;4896032;29;20048;-65
2021/11/27 16:05:12;;;;;;;74.45;36.55;;;;;;;;;;4879311;29;20059;-66
2021/11/27 16:07:39;;;;;;;69.32;36.83;;;;;;;;;;4895264;29;20490;-62
2021/11/27 16:10:06;;;;;;;75.65;35.63;;;;;;;;;;4895136;29;20035;-62
2021/11/27 16:12:32;;;;;;;68.97;33.65;;;;;;;;;;4894075;29;20033;-65
2021/11/27 16:15:02;;;;;;;66.68;31.65;;;;;;;;;;4895092;29;20052;-63
2021/11/27 16:17:29;;;;;;;59.08;30.35;;;;;;;;;;4896259;29;20103;-65
2021/11/27 16:19:58;;;;;;;55.13;28.00;;;;;;;;;;4895981;29;20485;-63
2021/11/27 16:22:26;;;;;;;49.95;25.58;;;;;;;;;;4895770;29;20041;-64
2021/11/27 16:24:54;;;;;;;49.15;24.90;;;;;;;;;;4895228;29;20024;-65
2021/11/27 16:27:20;;;;;;;50.42;24.38;;;;;;;;;;4895230;29;20131;-64
2021/11/27 16:29:47;;;;;;;45.70;22.85;;;;;;;;;;4877971;29;20035;-64
2021/11/27 16:32:13;;;;;;;40.85;20.48;;;;;;;;;;4894704;29;20055;-63
2021/11/27 16:34:43;;;;;;;36.55;19.67;;;;;;;;;;4894795;29;20029;-64
2021/11/27 16:37:10;;;;;;;39.30;19.55;;;;;;;;;;4894727;29;20024;-64
2021/11/27 16:39:37;;;;;;;37.40;19.38;;;;;;;;;;4894885;29;20028;-64
2021/11/27 16:42:03;;;;;;;43.70;20.95;;;;;;;;;;4896280;29;20024;-66
2021/11/27 16:44:30;;;;;;;49.92;24.08;;;;;;;;;;4894940;29;20158;-65
2021/11/27 16:46:56;;;;;;;48.70;23.92;;;;;;;;;;4894768;29;20048;-67
2021/11/27 16:49:22;;;;;;;52.05;25.73;;;;;;;;;;4894667;29;20088;-66
2021/11/27 16:51:49;;;;;;;42.60;20.95;;;;;;;;;;4894694;29;20035;-66
2021/11/27 16:54:15;;;;;;;47.47;21.85;;;;;;;;;;4894518;29;20583;-65
2021/11/27 16:56:41;;;;;;;47.45;23.25;;;;;;;;;;4894634;29;20481;-64
2021/11/27 16:59:07;;;;;;;51.50;25.63;;;;;;;;;;4894893;29;20036;-67
2021/11/27 17:01:34;;;;;;;48.22;25.02;;;;;;;;;;4894728;29;20101;-66
2021/11/27 17:04:00;;;;;;;36.72;17.25;;;;;;;;;;4896943;29;20129;-66
2021/11/27 17:06:26;;;;;;;32.10;15.32;;;;;;;;;;4894190;29;20041;-66
2021/11/27 17:08:53;;;;;;;31.98;14.80;;;;;;;;;;4895192;29;20516;-65
2021/11/27 17:11:19;;;;;;;26.88;13.52;;;;;;;;;;4895383;29;20036;-64
2021/11/27 17:13:49;;;;;;;24.00;12.70;;;;;;;;;;4895325;29;20056;-65
2021/11/27 17:16:16;;;;;;;31.15;14.63;;;;;;;;;;4895489;29;20028;-66
2021/11/27 17:18:48;;;;;;;29.55;13.60;;;;;;;;;;4895342;29;20100;-67
2021/11/27 17:21:14;;;;;;;28.65;14.85;;;;;;;;;;4895077;29;20039;-66
2021/11/27 17:23:40;;;;;;;33.42;17.23;;;;;;;;;;4898477;29;20056;-64
2021/11/27 17:26:06;;;;;;;35.20;17.80;;;;;;;;;;4898997;29;20040;-63
2021/11/27 17:28:33;;;;;;;37.10;17.08;;;;;;;;;;4898172;29;20017;-68
2021/11/27 17:30:59;;;;;;;36.45;17.00;;;;;;;;;;4898593;29;20025;-62
2021/11/27 17:33:25;;;;;;;30.42;16.25;;;;;;;;;;4897769;29;20029;-64
2021/11/27 17:35:52;;;;;;;28.20;14.32;;;;;;;;;;4898001;29;20083;-66
2021/11/27 17:38:19;;;;;;;29.27;14.75;;;;;;;;;;4897530;29;20029;-65
2021/11/27 17:40:45;;;;;;;25.67;14.02;;;;;;;;;;4897712;29;20031;-64
2021/11/27 17:43:11;;;;;;;26.25;13.10;;;;;;;;;;4897791;29;20111;-68
2021/11/27 17:45:37;;;;;;;28.95;13.35;;;;;;;;;;4897885;29;20116;-64
2021/11/27 17:48:03;;;;;;;30.52;15.82;;;;;;;;;;4897984;29;20388;-64
2021/11/27 17:50:30;;;;;;;29.92;15.38;;;;;;;;;;4897759;29;20024;-65
2021/11/27 17:52:56;;;;;;;29.13;14.65;;;;;;;;;;4898390;29;20552;-64
2021/11/27 17:55:22;;;;;;;25.52;12.85;;;;;;;;;;4898595;29;20028;-65
2021/11/27 17:57:48;;;;;;;27.52;13.13;;;;;;;;;;4905863;29;20028;-64
2021/11/27 18:00:15;;;;;;;24.63;12.23;;;;;;;;;;4898708;29;20102;-64
2021/11/27 18:02:41;;;;;;;24.48;11.85;;;;;;;;;;4897318;29;20057;-64
2021/11/27 18:05:07;;;;;;;25.40;11.27;;;;;;;;;;4898438;29;20065;-64
2021/11/27 18:07:34;;;;;;;22.35;10.43;;;;;;;;;;4898817;29;20115;-64
2021/11/27 18:10:00;;;;;;;21.38;10.52;;;;;;;;;;4898479;29;20051;-64
2021/11/27 18:12:26;;;;;;;20.75;10.77;;;;;;;;;;4898386;29;20029;-63
2021/11/27 18:14:52;;;;;;;21.15;9.90;;;;;;;;;;4899115;29;20029;-65
2021/11/27 18:17:19;;;;;;;19.05;9.23;;;;;;;;;;4898861;29;20024;-65
2021/11/27 18:19:45;;;;;;;23.42;10.02;;;;;;;;;;4898875;29;20024;-65
2021/11/27 18:22:11;;;;;;;18.30;9.43;;;;;;;;;;4898544;29;20107;-65
2021/11/27 18:24:44;;;;;;;20.60;8.88;;;;;;;;;;4898883;29;20036;-65
2021/11/27 18:29:38;;;;;;;20.35;9.48;;;;;;;;;;4898335;29;20039;-66
2021/11/27 18:32:05;;;;;;;17.90;8.45;;;;;;;;;;4915733;29;20108;-65
2021/11/27 18:34:31;;;;;;;18.00;8.60;;;;;;;;;;4917079;29;20035;-66
2021/11/27 18:36:58;;;;;;;19.77;9.68;;;;;;;;;;4917229;29;20480;-63
2021/11/27 18:39:24;;;;;;;19.38;9.63;;;;;;;;;;4916901;29;20119;-65
2021/11/27 18:41:51;;;;;;;32.58;13.85;;;;;;;;;;4917060;29;20028;-66
2021/11/27 18:44:18;;;;;;;19.95;9.48;;;;;;;;;;4911299;29;20480;-66
2021/11/27 18:46:44;;;;;;;18.20;8.95;;;;;;;;;;4896867;29;20483;-64
2021/11/27 18:49:10;;;;;;;19.02;8.93;;;;;;;;;;4896868;29;20100;-65
2021/11/27 18:51:37;;;;;;;15.55;7.85;;;;;;;;;;4896742;29;20032;-65
2021/11/27 18:54:04;;;;;;;14.30;7.38;;;;;;;;;;4898444;29;20036;-64
2021/11/27 18:56:30;;;;;;;14.13;6.68;;;;;;;;;;4898204;29;20024;-66
2021/11/27 18:58:56;;;;;;;14.43;7.32;;;;;;;;;;4912440;29;20115;-65
2021/11/27 19:01:23;;;;;;;16.52;6.93;;;;;;;;;;4913300;29;20021;-66
2021/11/27 19:03:49;;;;;;;14.52;7.07;;;;;;;;;;4897359;29;20060;-63
2021/11/27 19:06:15;;;;;;;16.98;7.60;;;;;;;;;;4897704;29;20036;-63
2021/11/27 19:08:41;;;;;;;15.98;7.18;;;;;;;;;;4897237;29;20031;-63
2021/11/27 19:11:12;;;;;;;14.68;6.60;;;;;;;;;;4897640;29;20100;-64
2021/11/27 19:13:40;;;;;;;14.38;7.45;;;;;;;;;;4892553;29;20036;-65
2021/11/27 19:16:06;;;;;;;14.68;7.55;;;;;;;;;;4880193;29;20425;-63
2021/11/27 19:18:32;;;;;;;12.57;7.32;;;;;;;;;;4897573;29;20433;-64
2021/11/27 19:20:58;;;;;;;14.45;6.97;;;;;;;;;;4897575;29;20040;-64
2021/11/27 19:23:25;;;;;;;16.45;8.73;;;;;;;;;;4897496;29;20401;-64
2021/11/27 19:25:51;;;;;;;19.05;8.43;;;;;;;;;;4897118;29;20425;-65
2021/11/27 19:28:17;;;;;;;21.77;8.88;;;;;;;;;;4906903;29;20115;-64
2021/11/27 19:30:45;;;;;;;18.50;8.25;;;;;;;;;;4915994;29;20043;-64
2021/11/27 19:33:11;;;;;;;22.35;9.57;;;;;;;;;;4911743;29;20533;-65
2021/11/27 19:35:37;;;;;;;23.17;9.60;;;;;;;;;;4896784;29;20039;-65
2021/11/27 19:38:03;;;;;;;23.15;8.90;;;;;;;;;;4897388;29;20043;-63
2021/11/27 19:40:29;;;;;;;24.17;9.77;;;;;;;;;;4897048;29;20103;-62
2021/11/27 19:42:55;;;;;;;20.50;8.77;;;;;;;;;;4897368;29;20037;-63
2021/11/27 19:45:21;;;;;;;18.15;8.90;;;;;;;;;;4896022;29;20032;-66
2021/11/27 19:47:48;;;;;;;17.10;7.65;;;;;;;;;;4881491;29;20481;-64
2021/11/27 19:50:14;;;;;;;18.73;8.90;;;;;;;;;;4896713;29;20158;-64
2021/11/27 19:52:40;;;;;;;16.92;8.23;;;;;;;;;;4896726;29;20033;-66
2021/11/27 19:55:06;;;;;;;15.48;7.70;;;;;;;;;;4896450;29;20032;-66
2021/11/27 19:57:32;;;;;;;19.08;8.73;;;;;;;;;;4896101;29;20385;-65
2021/11/27 19:59:58;;;;;;;19.45;7.65;;;;;;;;;;4895338;29;20029;-64
2021/11/27 20:02:25;;;;;;;14.88;6.60;;;;;;;;;;4894875;29;20021;-64
2021/11/27 20:04:51;;;;;;;12.48;6.03;;;;;;;;;;4895499;29;20040;-63
2021/11/27 20:07:17;;;;;;;15.02;6.90;;;;;;;;;;4902508;29;20091;-65
2021/11/27 20:09:43;;;;;;;13.73;6.43;;;;;;;;;;4915935;29;20039;-63
2021/11/27 20:12:09;;;;;;;13.32;6.70;;;;;;;;;;4915360;29;20039;-66
2021/11/27 20:14:37;;;;;;;15.00;7.22;;;;;;;;;;4899203;29;20028;-64
2021/11/27 20:17:04;;;;;;;15.88;7.63;;;;;;;;;;4895972;29;20485;-63
2021/11/27 20:19:31;;;;;;;18.58;8.25;;;;;;;;;;4895311;29;20033;-65
2021/11/27 20:21:57;;;;;;;17.17;8.02;;;;;;;;;;4895147;29;20029;-64
2021/11/27 20:24:23;;;;;;;17.63;7.38;;;;;;;;;;4898446;29;20025;-64
2021/11/27 20:26:49;;;;;;;15.02;6.80;;;;;;;;;;4896114;29;20044;-63
2021/11/27 20:29:15;;;;;;;12.68;6.50;;;;;;;;;;4894679;29;20389;-63
2021/11/27 20:31:42;;;;;;;10.88;5.30;;;;;;;;;;4895125;29;20396;-63
2021/11/27 20:34:09;;;;;;;11.07;5.47;;;;;;;;;;4895517;29;20036;-64
2021/11/27 20:36:35;;;;;;;10.90;4.70;;;;;;;;;;4893000;29;20076;-64
2021/11/27 20:39:01;;;;;;;8.40;4.40;;;;;;;;;;4894290;29;20025;-67
2021/11/27 20:41:27;;;;;;;9.90;5.13;;;;;;;;;;4893329;29;20067;-63
2021/11/27 20:43:54;;;;;;;13.70;6.82;;;;;;;;;;4894616;29;20123;-66
2021/11/27 20:46:20;;;;;;;13.85;6.97;;;;;;;;;;4894930;29;20041;-66
2021/11/27 20:48:47;;;;;;;10.70;4.72;;;;;;;;;;4896064;29;20037;-66
2021/11/27 20:51:13;;;;;;;11.13;4.18;;;;;;;;;;4893460;29;20032;-72
2021/11/27 20:53:40;;;;;;;9.23;4.60;;;;;;;;;;4893020;29;20119;-65
2021/11/27 20:56:08;;;;;;;15.00;7.93;;;;;;;;;;4894104;29;20036;-65
2021/11/27 20:58:34;;;;;;;9.68;4.80;;;;;;;;;;4894141;29;20028;-65
2021/11/27 21:01:03;;;;;;;10.23;5.28;;;;;;;;;;4893355;29;20040;-64
2021/11/27 21:03:29;;;;;;;10.55;4.80;;;;;;;;;;4892646;29;20059;-65
2021/11/27 21:05:56;;;;;;;10.90;5.53;;;;;;;;;;4893316;29;20092;-64
2021/11/27 21:08:22;;;;;;;10.80;5.22;;;;;;;;;;4893990;29;20051;-65
2021/11/27 21:10:48;;;;;;;9.05;5.20;;;;;;;;;;4893323;29;20071;-64
2021/11/27 21:13:18;;;;;;;9.60;4.88;;;;;;;;;;4892244;29;20036;-63
2021/11/27 21:15:45;;;;;;;8.13;4.25;;;;;;;;;;4892504;29;20047;-64
2021/11/27 21:18:11;;;;;;;17.13;4.80;;;;;;;;;;4894670;29;20025;-65
2021/11/27 21:20:37;;;;;;;14.02;5.47;;;;;;;;;;4895045;29;20482;-64
2021/11/27 21:23:03;;;;;;;9.70;4.38;;;;;;;;;;4893358;29;20029;-65
2021/11/27 21:25:29;;;;;;;10.02;4.40;;;;;;;;;;4894298;29;20060;-66
2021/11/27 21:27:55;;;;;;;9.00;4.70;;;;;;;;;;4893647;29;20127;-63